sensor_id;sensor_type;location;lat;lon;timestamp;temperature;humidity
19665;DHT22;9980;51.020;7.772;2023-10-09T00:02:10;15.60;99.90
19665;DHT22;9980;51.020;7.772;2023-10-09T00:04:39;15.60;99.90
19665;DHT22;9980;51.020;7.772;2023-10-09T00:07:12;15.50;99.90
19665;DHT22;9980;51.020;7.772;2023-10-09T00:09:43;15.50;99.90
19665;DHT22;9980;51.020;7.772;2023-10-09T00:12:17;15.50;99.90
19665;DHT22;9980;51.020;7.772;2023-10-09T00:14:50;15.50;99.90
19665;DHT22;9980;51.020;7.772;2023-10-09T00:17:21;15.40;99.90
19665;DHT22;9980;51.020;7.772;2023-10-09T00:19:49;15.40;99.90
19665;DHT22;9980;51.020;7.772;2023-10-09T00:22:18;15.40;99.90
19665;DHT22;9980;51.020;7.772;2023-10-09T00:24:53;15.30;99.90
19665;DHT22;9980;51.020;7.772;2023-10-09T00:27:43;15.30;99.90
19665;DHT22;9980;51.020;7.772;2023-10-09T00:30:13;15.30;99.90
19665;DHT22;9980;51.020;7.772;2023-10-09T00:32:45;15.20;99.90
19665;DHT22;9980;51.020;7.772;2023-10-09T00:35:25;15.20;99.90
19665;DHT22;9980;51.020;7.772;2023-10-09T00:38:21;15.10;99.90
19665;DHT22;9980;51.020;7.772;2023-10-09T00:40:48;15.10;99.90
19665;DHT22;9980;51.020;7.772;2023-10-09T00:43:35;15.10;99.90
19665;DHT22;9980;51.020;7.772;2023-10-09T00:46:05;15.00;99.90
19665;DHT22;9980;51.020;7.772;2023-10-09T00:48:52;15.00;99.90
19665;DHT22;9980;51.020;7.772;2023-10-09T00:51:24;14.90;99.90
19665;DHT22;9980;51.020;7.772;2023-10-09T00:53:57;14.90;99.90
19665;DHT22;9980;51.020;7.772;2023-10-09T00:56:27;14.80;99.90
19665;DHT22;9980;51.020;7.772;2023-10-09T00:58:58;14.80;99.90
19665;DHT22;9980;51.020;7.772;2023-10-09T01:01:37;14.80;99.90
19665;DHT22;9980;51.020;7.772;2023-10-09T01:04:07;14.80;99.90
19665;DHT22;9980;51.020;7.772;2023-10-09T01:06:38;14.70;99.90
19665;DHT22;9980;51.020;7.772;2023-10-09T01:09:12;14.70;99.90
19665;DHT22;9980;51.020;7.772;2023-10-09T01:11:42;14.60;99.90
19665;DHT22;9980;51.020;7.772;2023-10-09T01:14:18;14.60;99.90
19665;DHT22;9980;51.020;7.772;2023-10-09T01:16:48;14.60;99.90
19665;DHT22;9980;51.020;7.772;2023-10-09T01:19:15;14.60;99.90
19665;DHT22;9980;51.020;7.772;2023-10-09T01:21:51;14.50;99.90
19665;DHT22;9980;51.020;7.772;2023-10-09T01:24:19;14.50;99.90
19665;DHT22;9980;51.020;7.772;2023-10-09T01:26:47;14.50;99.90
19665;DHT22;9980;51.020;7.772;2023-10-09T01:29:18;14.40;99.90
19665;DHT22;9980;51.020;7.772;2023-10-09T01:31:48;14.40;99.90
19665;DHT22;9980;51.020;7.772;2023-10-09T01:34:28;14.40;99.90
19665;DHT22;9980;51.020;7.772;2023-10-09T01:37:07;14.40;99.90
19665;DHT22;9980;51.020;7.772;2023-10-09T01:39:53;14.40;99.90
19665;DHT22;9980;51.020;7.772;2023-10-09T01:42:25;14.40;99.90
19665;DHT22;9980;51.020;7.772;2023-10-09T01:45:12;14.30;99.90
19665;DHT22;9980;51.020;7.772;2023-10-09T01:47:44;14.30;99.90
19665;DHT22;9980;51.020;7.772;2023-10-09T01:50:19;14.30;99.90
19665;DHT22;9980;51.020;7.772;2023-10-09T01:52:48;14.30;99.90
19665;DHT22;9980;51.020;7.772;2023-10-09T01:55:17;14.30;99.90
19665;DHT22;9980;51.020;7.772;2023-10-09T01:58:05;14.30;99.90
19665;DHT22;9980;51.020;7.772;2023-10-09T02:00:43;14.30;99.90
19665;DHT22;9980;51.020;7.772;2023-10-09T02:03:16;14.30;99.90
19665;DHT22;9980;51.020;7.772;2023-10-09T02:05:51;14.30;99.90
19665;DHT22;9980;51.020;7.772;2023-10-09T02:08:26;14.30;99.90
19665;DHT22;9980;51.020;7.772;2023-10-09T02:10:53;14.30;99.90
19665;DHT22;9980;51.020;7.772;2023-10-09T02:13:23;14.30;99.90
19665;DHT22;9980;51.020;7.772;2023-10-09T02:15:57;14.30;99.90
19665;DHT22;9980;51.020;7.772;2023-10-09T02:18:43;14.30;99.90
19665;DHT22;9980;51.020;7.772;2023-10-09T02:21:20;14.30;99.90
19665;DHT22;9980;51.020;7.772;2023-10-09T02:24:06;14.30;99.90
19665;DHT22;9980;51.020;7.772;2023-10-09T02:26:51;14.30;99.90
19665;DHT22;9980;51.020;7.772;2023-10-09T02:29:17;14.30;99.90
19665;DHT22;9980;51.020;7.772;2023-10-09T02:31:45;14.30;99.90
19665;DHT22;9980;51.020;7.772;2023-10-09T02:34:18;14.30;99.90
19665;DHT22;9980;51.020;7.772;2023-10-09T02:36:50;14.30;99.90
19665;DHT22;9980;51.020;7.772;2023-10-09T02:39:24;14.30;99.90
19665;DHT22;9980;51.020;7.772;2023-10-09T02:41:57;14.20;99.90
19665;DHT22;9980;51.020;7.772;2023-10-09T02:44:28;14.20;99.90
19665;DHT22;9980;51.020;7.772;2023-10-09T02:47:06;14.20;99.90
19665;DHT22;9980;51.020;7.772;2023-10-09T02:49:44;14.20;99.90
19665;DHT22;9980;51.020;7.772;2023-10-09T02:52:11;14.20;99.90
19665;DHT22;9980;51.020;7.772;2023-10-09T02:54:43;14.20;99.90
19665;DHT22;9980;51.020;7.772;2023-10-09T02:57:13;14.10;99.90
19665;DHT22;9980;51.020;7.772;2023-10-09T02:59:49;14.10;99.90
19665;DHT22;9980;51.020;7.772;2023-10-09T03:02:18;14.10;99.90
19665;DHT22;9980;51.020;7.772;2023-10-09T03:04:45;14.10;99.90
19665;DHT22;9980;51.020;7.772;2023-10-09T03:07:12;14.10;99.90
19665;DHT22;9980;51.020;7.772;2023-10-09T03:09:41;14.10;99.90
19665;DHT22;9980;51.020;7.772;2023-10-09T03:12:08;14.10;99.90
19665;DHT22;9980;51.020;7.772;2023-10-09T03:14:45;14.00;99.90
19665;DHT22;9980;51.020;7.772;2023-10-09T03:17:12;14.00;99.90
19665;DHT22;9980;51.020;7.772;2023-10-09T03:19:41;14.00;99.90
19665;DHT22;9980;51.020;7.772;2023-10-09T03:22:10;14.00;99.90
19665;DHT22;9980;51.020;7.772;2023-10-09T03:24:41;14.00;99.90
19665;DHT22;9980;51.020;7.772;2023-10-09T03:27:08;14.00;99.90
19665;DHT22;9980;51.020;7.772;2023-10-09T03:29:35;13.90;99.90
19665;DHT22;9980;51.020;7.772;2023-10-09T03:32:03;14.00;99.90
19665;DHT22;9980;51.020;7.772;2023-10-09T03:34:30;13.90;99.90
19665;DHT22;9980;51.020;7.772;2023-10-09T03:36:57;13.90;99.90
19665;DHT22;9980;51.020;7.772;2023-10-09T03:39:31;14.00;99.90
19665;DHT22;9980;51.020;7.772;2023-10-09T03:42:13;13.90;99.90
19665;DHT22;9980;51.020;7.772;2023-10-09T03:44:46;13.90;99.90
19665;DHT22;9980;51.020;7.772;2023-10-09T03:47:21;13.90;99.90
19665;DHT22;9980;51.020;7.772;2023-10-09T03:49:51;13.90;99.90
19665;DHT22;9980;51.020;7.772;2023-10-09T03:52:20;13.90;99.90
19665;DHT22;9980;51.020;7.772;2023-10-09T03:54:50;13.90;99.90
19665;DHT22;9980;51.020;7.772;2023-10-09T03:57:17;13.90;99.90
19665;DHT22;9980;51.020;7.772;2023-10-09T03:59:48;13.90;99.90
19665;DHT22;9980;51.020;7.772;2023-10-09T04:02:15;13.90;99.90
19665;DHT22;9980;51.020;7.772;2023-10-09T04:04:43;13.90;99.90
19665;DHT22;9980;51.020;7.772;2023-10-09T04:07:17;13.90;99.90
19665;DHT22;9980;51.020;7.772;2023-10-09T04:09:44;13.90;99.90
19665;DHT22;9980;51.020;7.772;2023-10-09T04:12:14;13.90;99.90
19665;DHT22;9980;51.020;7.772;2023-10-09T04:14:51;13.90;99.90
19665;DHT22;9980;51.020;7.772;2023-10-09T04:17:22;14.00;99.90
19665;DHT22;9980;51.020;7.772;2023-10-09T04:20:01;14.00;99.90
19665;DHT22;9980;51.020;7.772;2023-10-09T04:23:03;14.00;99.90
19665;DHT22;9980;51.020;7.772;2023-10-09T04:25:33;14.00;99.90
19665;DHT22;9980;51.020;7.772;2023-10-09T04:28:10;14.00;99.90
19665;DHT22;9980;51.020;7.772;2023-10-09T04:30:46;14.00;99.90
19665;DHT22;9980;51.020;7.772;2023-10-09T04:33:14;14.00;99.90
19665;DHT22;9980;51.020;7.772;2023-10-09T04:36:07;14.00;99.90
19665;DHT22;9980;51.020;7.772;2023-10-09T04:38:48;14.10;99.90
19665;DHT22;9980;51.020;7.772;2023-10-09T04:41:31;14.10;99.90
19665;DHT22;9980;51.020;7.772;2023-10-09T04:44:19;14.10;99.90
19665;DHT22;9980;51.020;7.772;2023-10-09T04:46:50;14.10;99.90
19665;DHT22;9980;51.020;7.772;2023-10-09T04:49:40;14.10;99.90
19665;DHT22;9980;51.020;7.772;2023-10-09T04:52:18;14.10;99.90
19665;DHT22;9980;51.020;7.772;2023-10-09T04:55:06;14.10;99.90
19665;DHT22;9980;51.020;7.772;2023-10-09T04:57:39;14.10;99.90
19665;DHT22;9980;51.020;7.772;2023-10-09T05:00:14;14.10;99.90
19665;DHT22;9980;51.020;7.772;2023-10-09T05:03:09;14.10;99.90
19665;DHT22;9980;51.020;7.772;2023-10-09T05:05:40;14.10;99.90
19665;DHT22;9980;51.020;7.772;2023-10-09T05:08:16;14.10;99.90
19665;DHT22;9980;51.020;7.772;2023-10-09T05:10:48;14.10;99.90
19665;DHT22;9980;51.020;7.772;2023-10-09T05:13:36;14.20;99.90
19665;DHT22;9980;51.020;7.772;2023-10-09T05:18:55;14.20;99.90
19665;DHT22;9980;51.020;7.772;2023-10-09T05:21:25;14.20;99.90
19665;DHT22;9980;51.020;7.772;2023-10-09T05:24:04;14.30;99.90
19665;DHT22;9980;51.020;7.772;2023-10-09T05:26:48;14.30;99.90
19665;DHT22;9980;51.020;7.772;2023-10-09T05:29:24;14.30;99.90
19665;DHT22;9980;51.020;7.772;2023-10-09T05:32:02;14.30;99.90
19665;DHT22;9980;51.020;7.772;2023-10-09T05:34:44;14.30;99.90
19665;DHT22;9980;51.020;7.772;2023-10-09T05:37:29;14.30;99.90
19665;DHT22;9980;51.020;7.772;2023-10-09T05:40:05;14.30;99.90
19665;DHT22;9980;51.020;7.772;2023-10-09T05:42:45;14.30;99.90
19665;DHT22;9980;51.020;7.772;2023-10-09T05:45:25;14.40;99.90
19665;DHT22;9980;51.020;7.772;2023-10-09T05:48:11;14.40;99.90
19665;DHT22;9980;51.020;7.772;2023-10-09T05:50:41;14.40;99.90
19665;DHT22;9980;51.020;7.772;2023-10-09T05:53:26;14.40;99.90
19665;DHT22;9980;51.020;7.772;2023-10-09T05:56:12;14.40;99.90
19665;DHT22;9980;51.020;7.772;2023-10-09T05:58:58;14.50;99.90
19665;DHT22;9980;51.020;7.772;2023-10-09T06:01:44;14.50;99.90
19665;DHT22;9980;51.020;7.772;2023-10-09T06:04:28;14.50;99.90
19665;DHT22;9980;51.020;7.772;2023-10-09T06:07:21;14.50;99.90
19665;DHT22;9980;51.020;7.772;2023-10-09T06:10:07;14.50;99.90
19665;DHT22;9980;51.020;7.772;2023-10-09T06:12:45;14.60;99.90
19665;DHT22;9980;51.020;7.772;2023-10-09T06:15:17;14.60;99.90
19665;DHT22;9980;51.020;7.772;2023-10-09T06:18:18;14.60;99.90
19665;DHT22;9980;51.020;7.772;2023-10-09T06:21:00;14.60;99.90
19665;DHT22;9980;51.020;7.772;2023-10-09T06:23:45;14.70;99.90
19665;DHT22;9980;51.020;7.772;2023-10-09T06:26:31;14.70;99.90
19665;DHT22;9980;51.020;7.772;2023-10-09T06:28:59;14.80;99.90
19665;DHT22;9980;51.020;7.772;2023-10-09T06:31:42;14.70;99.90
19665;DHT22;9980;51.020;7.772;2023-10-09T06:34:28;14.80;99.90
19665;DHT22;9980;51.020;7.772;2023-10-09T06:37:02;14.80;99.90
19665;DHT22;9980;51.020;7.772;2023-10-09T06:40:01;14.90;99.90
19665;DHT22;9980;51.020;7.772;2023-10-09T06:42:56;15.00;99.90
19665;DHT22;9980;51.020;7.772;2023-10-09T06:45:23;15.10;99.90
19665;DHT22;9980;51.020;7.772;2023-10-09T06:48:13;15.20;99.90
19665;DHT22;9980;51.020;7.772;2023-10-09T06:51:17;15.20;99.90
19665;DHT22;9980;51.020;7.772;2023-10-09T06:53:54;15.30;99.90
19665;DHT22;9980;51.020;7.772;2023-10-09T06:56:27;15.40;99.90
19665;DHT22;9980;51.020;7.772;2023-10-09T07:01:40;15.60;99.90
19665;DHT22;9980;51.020;7.772;2023-10-09T07:04:12;15.60;99.90
19665;DHT22;9980;51.020;7.772;2023-10-09T07:06:47;15.70;99.90
19665;DHT22;9980;51.020;7.772;2023-10-09T07:09:18;15.70;99.90
19665;DHT22;9980;51.020;7.772;2023-10-09T07:11:52;15.80;99.90
19665;DHT22;9980;51.020;7.772;2023-10-09T07:14:22;15.80;99.90
19665;DHT22;9980;51.020;7.772;2023-10-09T07:17:19;15.90;99.90
19665;DHT22;9980;51.020;7.772;2023-10-09T07:19:50;16.00;99.90
19665;DHT22;9980;51.020;7.772;2023-10-09T07:22:17;16.10;99.90
19665;DHT22;9980;51.020;7.772;2023-10-09T07:24:48;16.20;99.90
19665;DHT22;9980;51.020;7.772;2023-10-09T07:27:28;16.20;99.90
19665;DHT22;9980;51.020;7.772;2023-10-09T07:30:28;16.30;99.90
19665;DHT22;9980;51.020;7.772;2023-10-09T07:33:00;16.50;99.90
19665;DHT22;9980;51.020;7.772;2023-10-09T07:35:40;16.50;99.90
19665;DHT22;9980;51.020;7.772;2023-10-09T07:38:23;16.70;99.90
19665;DHT22;9980;51.020;7.772;2023-10-09T07:40:56;16.70;99.90
19665;DHT22;9980;51.020;7.772;2023-10-09T07:43:31;16.80;99.90
19665;DHT22;9980;51.020;7.772;2023-10-09T07:46:16;16.90;99.90
19665;DHT22;9980;51.020;7.772;2023-10-09T07:49:03;17.00;99.90
19665;DHT22;9980;51.020;7.772;2023-10-09T07:51:38;17.10;99.90
19665;DHT22;9980;51.020;7.772;2023-10-09T07:54:13;17.20;99.90
19665;DHT22;9980;51.020;7.772;2023-10-09T07:56:59;17.30;99.90
19665;DHT22;9980;51.020;7.772;2023-10-09T07:59:35;17.40;99.90
19665;DHT22;9980;51.020;7.772;2023-10-09T08:02:07;17.40;99.90
19665;DHT22;9980;51.020;7.772;2023-10-09T08:04:40;17.50;99.90
19665;DHT22;9980;51.020;7.772;2023-10-09T08:07:16;17.60;99.90
19665;DHT22;9980;51.020;7.772;2023-10-09T08:10:08;17.70;99.90
19665;DHT22;9980;51.020;7.772;2023-10-09T08:12:45;17.70;99.90
19665;DHT22;9980;51.020;7.772;2023-10-09T08:15:16;17.80;99.90
19665;DHT22;9980;51.020;7.772;2023-10-09T08:17:53;17.90;99.90
19665;DHT22;9980;51.020;7.772;2023-10-09T08:20:31;18.00;99.90
19665;DHT22;9980;51.020;7.772;2023-10-09T08:23:17;18.10;99.90
19665;DHT22;9980;51.020;7.772;2023-10-09T08:26:03;18.20;99.90
19665;DHT22;9980;51.020;7.772;2023-10-09T08:28:44;18.30;99.90
19665;DHT22;9980;51.020;7.772;2023-10-09T08:31:13;18.30;99.90
19665;DHT22;9980;51.020;7.772;2023-10-09T08:34:03;18.40;99.90
19665;DHT22;9980;51.020;7.772;2023-10-09T08:36:33;18.50;99.90
19665;DHT22;9980;51.020;7.772;2023-10-09T08:39:04;18.50;99.90
19665;DHT22;9980;51.020;7.772;2023-10-09T08:41:44;18.60;99.90
19665;DHT22;9980;51.020;7.772;2023-10-09T08:44:12;18.70;99.90
19665;DHT22;9980;51.020;7.772;2023-10-09T08:46:42;18.70;99.90
19665;DHT22;9980;51.020;7.772;2023-10-09T08:49:10;18.70;99.90
19665;DHT22;9980;51.020;7.772;2023-10-09T08:51:38;18.80;99.90
19665;DHT22;9980;51.020;7.772;2023-10-09T08:54:07;18.80;99.90
19665;DHT22;9980;51.020;7.772;2023-10-09T08:56:38;18.90;99.90
19665;DHT22;9980;51.020;7.772;2023-10-09T08:59:17;18.90;99.90
19665;DHT22;9980;51.020;7.772;2023-10-09T09:01:48;18.90;99.90
19665;DHT22;9980;51.020;7.772;2023-10-09T09:04:40;19.00;99.90
19665;DHT22;9980;51.020;7.772;2023-10-09T09:07:28;19.00;99.90
19665;DHT22;9980;51.020;7.772;2023-10-09T09:09:57;19.00;99.90
19665;DHT22;9980;51.020;7.772;2023-10-09T09:12:30;19.10;99.90
19665;DHT22;9980;51.020;7.772;2023-10-09T09:15:05;19.10;99.90
19665;DHT22;9980;51.020;7.772;2023-10-09T09:17:48;19.10;99.90
19665;DHT22;9980;51.020;7.772;2023-10-09T09:20:21;19.10;99.90
19665;DHT22;9980;51.020;7.772;2023-10-09T09:22:53;19.20;99.90
19665;DHT22;9980;51.020;7.772;2023-10-09T09:25:23;19.20;99.90
19665;DHT22;9980;51.020;7.772;2023-10-09T09:27:52;19.30;99.90
19665;DHT22;9980;51.020;7.772;2023-10-09T09:30:26;19.30;99.90
19665;DHT22;9980;51.020;7.772;2023-10-09T09:33:20;19.40;99.90
19665;DHT22;9980;51.020;7.772;2023-10-09T09:35:57;19.40;99.90
19665;DHT22;9980;51.020;7.772;2023-10-09T09:38:33;19.50;99.90
19665;DHT22;9980;51.020;7.772;2023-10-09T09:41:16;19.50;99.90
19665;DHT22;9980;51.020;7.772;2023-10-09T09:43:54;19.60;99.90
19665;DHT22;9980;51.020;7.772;2023-10-09T09:46:34;19.60;99.90
19665;DHT22;9980;51.020;7.772;2023-10-09T09:49:03;19.60;99.90
19665;DHT22;9980;51.020;7.772;2023-10-09T09:51:43;19.70;99.90
19665;DHT22;9980;51.020;7.772;2023-10-09T09:54:14;19.80;99.90
19665;DHT22;9980;51.020;7.772;2023-10-09T09:56:45;19.80;99.90
19665;DHT22;9980;51.020;7.772;2023-10-09T09:59:18;19.80;99.90
19665;DHT22;9980;51.020;7.772;2023-10-09T10:01:50;19.90;99.90
19665;DHT22;9980;51.020;7.772;2023-10-09T10:04:29;20.00;99.90
19665;DHT22;9980;51.020;7.772;2023-10-09T10:07:02;20.00;99.90
19665;DHT22;9980;51.020;7.772;2023-10-09T10:09:42;20.10;99.90
19665;DHT22;9980;51.020;7.772;2023-10-09T10:12:11;20.20;99.90
19665;DHT22;9980;51.020;7.772;2023-10-09T10:14:54;20.20;99.90
19665;DHT22;9980;51.020;7.772;2023-10-09T10:20:26;20.40;99.90
19665;DHT22;9980;51.020;7.772;2023-10-09T10:23:17;20.60;99.90
19665;DHT22;9980;51.020;7.772;2023-10-09T10:25:47;20.70;99.90
19665;DHT22;9980;51.020;7.772;2023-10-09T10:28:18;20.80;99.90
19665;DHT22;9980;51.020;7.772;2023-10-09T10:30:55;20.90;99.90
19665;DHT22;9980;51.020;7.772;2023-10-09T10:33:31;21.00;99.90
19665;DHT22;9980;51.020;7.772;2023-10-09T10:36:23;21.10;99.90
19665;DHT22;9980;51.020;7.772;2023-10-09T10:39:06;21.20;99.90
19665;DHT22;9980;51.020;7.772;2023-10-09T10:41:39;21.30;99.90
19665;DHT22;9980;51.020;7.772;2023-10-09T10:44:31;21.40;99.90
19665;DHT22;9980;51.020;7.772;2023-10-09T10:47:12;21.50;99.90
19665;DHT22;9980;51.020;7.772;2023-10-09T10:49:51;21.60;99.90
19665;DHT22;9980;51.020;7.772;2023-10-09T10:52:26;21.70;99.90
19665;DHT22;9980;51.020;7.772;2023-10-09T10:55:15;21.70;99.90
19665;DHT22;9980;51.020;7.772;2023-10-09T10:57:58;21.80;99.90
19665;DHT22;9980;51.020;7.772;2023-10-09T11:00:28;21.90;99.90
19665;DHT22;9980;51.020;7.772;2023-10-09T11:03:21;21.90;99.90
19665;DHT22;9980;51.020;7.772;2023-10-09T11:06:02;22.00;99.90
19665;DHT22;9980;51.020;7.772;2023-10-09T11:08:46;22.10;99.90
19665;DHT22;9980;51.020;7.772;2023-10-09T11:11:23;22.10;99.90
19665;DHT22;9980;51.020;7.772;2023-10-09T11:14:10;22.20;99.90
19665;DHT22;9980;51.020;7.772;2023-10-09T11:16:50;22.30;99.90
19665;DHT22;9980;51.020;7.772;2023-10-09T11:19:22;22.30;99.90
19665;DHT22;9980;51.020;7.772;2023-10-09T11:21:56;22.30;99.90
19665;DHT22;9980;51.020;7.772;2023-10-09T11:24:28;22.40;99.90
19665;DHT22;9980;51.020;7.772;2023-10-09T11:27:05;22.40;99.90
19665;DHT22;9980;51.020;7.772;2023-10-09T11:29:34;22.40;99.90
19665;DHT22;9980;51.020;7.772;2023-10-09T11:32:20;22.40;99.90
19665;DHT22;9980;51.020;7.772;2023-10-09T11:35:13;22.40;99.90
19665;DHT22;9980;51.020;7.772;2023-10-09T11:37:57;22.40;99.90
19665;DHT22;9980;51.020;7.772;2023-10-09T11:40:29;22.40;99.90
19665;DHT22;9980;51.020;7.772;2023-10-09T11:43:20;22.40;99.90
19665;DHT22;9980;51.020;7.772;2023-10-09T11:46:10;22.40;99.90
19665;DHT22;9980;51.020;7.772;2023-10-09T11:49:08;22.50;99.90
19665;DHT22;9980;51.020;7.772;2023-10-09T11:51:48;22.50;99.90
19665;DHT22;9980;51.020;7.772;2023-10-09T11:54:35;22.50;99.90
19665;DHT22;9980;51.020;7.772;2023-10-09T11:57:03;22.50;99.90
19665;DHT22;9980;51.020;7.772;2023-10-09T11:59:30;22.60;99.90
19665;DHT22;9980;51.020;7.772;2023-10-09T12:02:05;22.60;99.90
19665;DHT22;9980;51.020;7.772;2023-10-09T12:04:39;22.60;99.90
19665;DHT22;9980;51.020;7.772;2023-10-09T12:07:12;22.60;99.90
19665;DHT22;9980;51.020;7.772;2023-10-09T12:09:39;22.70;99.90
19665;DHT22;9980;51.020;7.772;2023-10-09T12:12:07;22.70;99.90
19665;DHT22;9980;51.020;7.772;2023-10-09T12:14:38;22.80;99.90
19665;DHT22;9980;51.020;7.772;2023-10-09T12:17:07;22.80;99.90
19665;DHT22;9980;51.020;7.772;2023-10-09T12:19:37;22.80;99.90
19665;DHT22;9980;51.020;7.772;2023-10-09T12:22:07;22.90;99.90
19665;DHT22;9980;51.020;7.772;2023-10-09T12:24:42;22.90;99.90
19665;DHT22;9980;51.020;7.772;2023-10-09T12:27:10;22.90;99.90
19665;DHT22;9980;51.020;7.772;2023-10-09T12:29:38;23.00;99.90
19665;DHT22;9980;51.020;7.772;2023-10-09T12:32:11;23.00;99.90
19665;DHT22;9980;51.020;7.772;2023-10-09T12:34:39;23.00;99.90
19665;DHT22;9980;51.020;7.772;2023-10-09T12:37:06;23.10;99.90
19665;DHT22;9980;51.020;7.772;2023-10-09T12:39:33;23.10;99.90
19665;DHT22;9980;51.020;7.772;2023-10-09T12:42:00;23.20;99.90
19665;DHT22;9980;51.020;7.772;2023-10-09T12:44:35;23.20;99.90
19665;DHT22;9980;51.020;7.772;2023-10-09T12:47:06;23.20;99.90
19665;DHT22;9980;51.020;7.772;2023-10-09T12:49:33;23.20;99.90
19665;DHT22;9980;51.020;7.772;2023-10-09T12:52:00;23.20;99.90
19665;DHT22;9980;51.020;7.772;2023-10-09T12:54:27;23.30;99.90
19665;DHT22;9980;51.020;7.772;2023-10-09T12:56:55;23.30;99.90
19665;DHT22;9980;51.020;7.772;2023-10-09T12:59:22;23.30;99.90
19665;DHT22;9980;51.020;7.772;2023-10-09T13:01:51;23.30;99.90
19665;DHT22;9980;51.020;7.772;2023-10-09T13:04:25;23.30;99.90
19665;DHT22;9980;51.020;7.772;2023-10-09T13:06:58;23.30;99.90
19665;DHT22;9980;51.020;7.772;2023-10-09T13:09:30;23.30;99.90
19665;DHT22;9980;51.020;7.772;2023-10-09T13:12:02;23.30;99.90
19665;DHT22;9980;51.020;7.772;2023-10-09T13:14:32;23.30;99.90
19665;DHT22;9980;51.020;7.772;2023-10-09T13:17:01;23.30;99.40
19665;DHT22;9980;51.020;7.772;2023-10-09T13:19:36;23.30;99.40
19665;DHT22;9980;51.020;7.772;2023-10-09T13:22:03;23.30;99.60
19665;DHT22;9980;51.020;7.772;2023-10-09T13:24:30;23.30;99.40
19665;DHT22;9980;51.020;7.772;2023-10-09T13:26:57;23.30;99.60
19665;DHT22;9980;51.020;7.772;2023-10-09T13:29:30;23.30;99.70
19665;DHT22;9980;51.020;7.772;2023-10-09T13:32:00;23.30;99.30
19665;DHT22;9980;51.020;7.772;2023-10-09T13:34:30;23.30;99.00
19665;DHT22;9980;51.020;7.772;2023-10-09T13:36:57;23.30;98.90
19665;DHT22;9980;51.020;7.772;2023-10-09T13:39:26;23.20;99.10
19665;DHT22;9980;51.020;7.772;2023-10-09T13:41:56;23.20;99.00
19665;DHT22;9980;51.020;7.772;2023-10-09T13:44:34;23.30;98.70
19665;DHT22;9980;51.020;7.772;2023-10-09T13:47:06;23.30;99.00
19665;DHT22;9980;51.020;7.772;2023-10-09T13:49:35;23.20;98.80
19665;DHT22;9980;51.020;7.772;2023-10-09T13:52:09;23.20;99.00
19665;DHT22;9980;51.020;7.772;2023-10-09T13:54:36;23.20;99.20
19665;DHT22;9980;51.020;7.772;2023-10-09T13:57:04;23.20;99.40
19665;DHT22;9980;51.020;7.772;2023-10-09T13:59:34;23.30;99.40
19665;DHT22;9980;51.020;7.772;2023-10-09T14:02:03;23.30;99.30
19665;DHT22;9980;51.020;7.772;2023-10-09T14:04:43;23.20;99.20
19665;DHT22;9980;51.020;7.772;2023-10-09T14:07:17;23.30;99.20
19665;DHT22;9980;51.020;7.772;2023-10-09T14:09:47;23.30;99.20
19665;DHT22;9980;51.020;7.772;2023-10-09T14:12:34;23.30;99.10
19665;DHT22;9980;51.020;7.772;2023-10-09T14:15:06;23.30;99.10
19665;DHT22;9980;51.020;7.772;2023-10-09T14:17:37;23.30;99.30
19665;DHT22;9980;51.020;7.772;2023-10-09T14:20:09;23.30;99.20
19665;DHT22;9980;51.020;7.772;2023-10-09T14:22:55;23.30;99.00
19665;DHT22;9980;51.020;7.772;2023-10-09T14:25:22;23.30;99.00
19665;DHT22;9980;51.020;7.772;2023-10-09T14:27:49;23.30;99.10
19665;DHT22;9980;51.020;7.772;2023-10-09T14:30:19;23.30;99.10
19665;DHT22;9980;51.020;7.772;2023-10-09T14:32:57;23.30;99.30
19665;DHT22;9980;51.020;7.772;2023-10-09T14:35:25;23.30;99.10
19665;DHT22;9980;51.020;7.772;2023-10-09T14:37:57;23.30;99.20
19665;DHT22;9980;51.020;7.772;2023-10-09T14:40:24;23.30;99.30
19665;DHT22;9980;51.020;7.772;2023-10-09T14:42:56;23.30;99.20
19665;DHT22;9980;51.020;7.772;2023-10-09T14:45:25;23.30;99.10
19665;DHT22;9980;51.020;7.772;2023-10-09T14:47:53;23.20;99.00
19665;DHT22;9980;51.020;7.772;2023-10-09T14:50:21;23.20;99.00
19665;DHT22;9980;51.020;7.772;2023-10-09T14:52:49;23.20;98.80
19665;DHT22;9980;51.020;7.772;2023-10-09T14:55:17;23.10;98.80
19665;DHT22;9980;51.020;7.772;2023-10-09T14:57:48;23.10;98.80
19665;DHT22;9980;51.020;7.772;2023-10-09T15:00:18;23.00;98.80
19665;DHT22;9980;51.020;7.772;2023-10-09T15:02:50;23.00;99.00
19665;DHT22;9980;51.020;7.772;2023-10-09T15:05:18;22.90;99.00
19665;DHT22;9980;51.020;7.772;2023-10-09T15:07:45;22.90;99.20
19665;DHT22;9980;51.020;7.772;2023-10-09T15:10:13;22.80;99.20
19665;DHT22;9980;51.020;7.772;2023-10-09T15:12:44;22.80;99.20
19665;DHT22;9980;51.020;7.772;2023-10-09T15:15:13;22.80;99.30
19665;DHT22;9980;51.020;7.772;2023-10-09T15:17:42;22.70;99.30
19665;DHT22;9980;51.020;7.772;2023-10-09T15:20:15;22.70;99.40
19665;DHT22;9980;51.020;7.772;2023-10-09T15:22:43;22.70;99.50
19665;DHT22;9980;51.020;7.772;2023-10-09T15:25:11;22.60;99.30
19665;DHT22;9980;51.020;7.772;2023-10-09T15:27:45;22.60;99.40
19665;DHT22;9980;51.020;7.772;2023-10-09T15:30:12;22.50;99.40
19665;DHT22;9980;51.020;7.772;2023-10-09T15:32:44;22.50;99.40
19665;DHT22;9980;51.020;7.772;2023-10-09T15:35:12;22.40;99.60
19665;DHT22;9980;51.020;7.772;2023-10-09T15:37:42;22.40;99.60
19665;DHT22;9980;51.020;7.772;2023-10-09T15:40:10;22.40;99.70
19665;DHT22;9980;51.020;7.772;2023-10-09T15:42:45;22.40;99.70
19665;DHT22;9980;51.020;7.772;2023-10-09T15:45:22;22.30;99.80
19665;DHT22;9980;51.020;7.772;2023-10-09T15:47:51;22.30;99.70
19665;DHT22;9980;51.020;7.772;2023-10-09T15:50:19;22.30;99.80
19665;DHT22;9980;51.020;7.772;2023-10-09T15:52:52;22.20;99.80
19665;DHT22;9980;51.020;7.772;2023-10-09T15:55:21;22.20;99.80
19665;DHT22;9980;51.020;7.772;2023-10-09T15:57:51;22.20;99.80
19665;DHT22;9980;51.020;7.772;2023-10-09T16:00:22;22.10;99.80
19665;DHT22;9980;51.020;7.772;2023-10-09T16:02:55;22.10;99.90
19665;DHT22;9980;51.020;7.772;2023-10-09T16:05:23;22.00;99.90
19665;DHT22;9980;51.020;7.772;2023-10-09T16:07:53;22.00;99.90
19665;DHT22;9980;51.020;7.772;2023-10-09T16:10:21;22.00;99.90
19665;DHT22;9980;51.020;7.772;2023-10-09T16:12:49;21.90;99.90
19665;DHT22;9980;51.020;7.772;2023-10-09T16:15:19;21.90;99.90
19665;DHT22;9980;51.020;7.772;2023-10-09T16:17:47;21.90;99.90
19665;DHT22;9980;51.020;7.772;2023-10-09T16:20:15;21.80;99.90
19665;DHT22;9980;51.020;7.772;2023-10-09T16:22:49;21.80;99.90
19665;DHT22;9980;51.020;7.772;2023-10-09T16:25:17;21.80;99.90
19665;DHT22;9980;51.020;7.772;2023-10-09T16:27:47;21.70;99.90
19665;DHT22;9980;51.020;7.772;2023-10-09T16:30:16;21.70;99.90
19665;DHT22;9980;51.020;7.772;2023-10-09T16:32:45;21.70;99.90
19665;DHT22;9980;51.020;7.772;2023-10-09T16:35:13;21.60;99.90
19665;DHT22;9980;51.020;7.772;2023-10-09T16:37:40;21.60;99.90
19665;DHT22;9980;51.020;7.772;2023-10-09T16:40:08;21.50;99.90
19665;DHT22;9980;51.020;7.772;2023-10-09T16:42:40;21.50;99.90